Time;durP1;ratioP1;P1;durP2;ratioP2;P2;SDS_P1;SDS_P2;PMS_P1;PMS_P2;Temp;Humidity;BMP_temperature;BMP_pressure;BME280_temperature;BME280_humidity;BME280_pressure;Samples;Min_cycle;Max_cycle;Signal;HPM_P1;HPM_P2
2021/09/05 00:00:26;;;;;;;16.30;8.45;;;16.60;99.90;;;;;;5063084;28;20033;-84
2021/09/05 00:02:52;;;;;;;15.27;8.18;;;16.50;99.90;;;;;;5045571;28;20032;-84
2021/09/05 00:05:18;;;;;;;15.70;8.85;;;16.80;99.90;;;;;;5044855;28;20029;-84
2021/09/05 00:07:43;;;;;;;12.27;7.13;;;16.50;99.90;;;;;;5062754;28;20051;-84
2021/09/05 00:10:10;;;;;;;12.27;7.28;;;16.50;99.90;;;;;;5062649;28;20541;-84
2021/09/05 00:12:37;;;;;;;12.10;6.97;;;16.50;99.90;;;;;;5063199;28;20028;-84
2021/09/05 00:15:06;;;;;;;12.93;7.53;;;16.40;99.90;;;;;;5043028;28;20021;-84
2021/09/05 00:17:31;;;;;;;13.27;7.57;;;16.40;99.90;;;;;;5037316;28;20028;-83
2021/09/05 00:19:57;;;;;;;10.38;6.95;;;16.40;99.90;;;;;;5062853;28;20576;-84
2021/09/05 00:22:22;;;;;;;13.10;7.03;;;16.30;99.90;;;;;;5061537;28;20083;-83
2021/09/05 00:24:48;;;;;;;12.23;7.28;;;16.40;99.90;;;;;;5063613;28;20039;-84
2021/09/05 00:27:14;;;;;;;12.52;7.53;;;16.30;99.90;;;;;;5064218;28;20116;-83
2021/09/05 00:29:39;;;;;;;11.63;6.15;;;16.30;99.90;;;;;;5063502;28;20211;-84
2021/09/05 00:32:05;;;;;;;11.68;7.00;;;16.30;99.90;;;;;;5062918;28;20033;-84
2021/09/05 00:34:31;;;;;;;10.27;6.97;;;16.30;99.90;;;;;;5066015;28;20024;-84
2021/09/05 00:36:56;;;;;;;12.80;7.25;;;16.30;99.90;;;;;;5067291;28;20021;-85
2021/09/05 00:39:22;;;;;;;10.90;6.40;;;16.40;99.90;;;;;;5066932;28;20021;-83
2021/09/05 00:41:48;;;;;;;11.77;7.10;;;16.20;99.90;;;;;;5050765;28;20037;-84
2021/09/05 00:44:14;;;;;;;11.82;7.13;;;16.30;99.90;;;;;;5068747;22;20058;-84
2021/09/05 00:46:40;;;;;;;14.02;6.97;;;16.20;99.90;;;;;;5010496;28;20052;-85
2021/09/05 00:49:07;;;;;;;10.90;6.72;;;16.10;99.90;;;;;;5013205;28;20022;-84
2021/09/05 00:51:35;;;;;;;11.07;6.90;;;16.20;99.90;;;;;;5021231;28;20536;-84
2021/09/05 00:54:03;;;;;;;13.13;7.47;;;16.10;99.90;;;;;;5023026;28;20094;-85
2021/09/05 00:56:32;;;;;;;11.45;6.82;;;16.10;99.90;;;;;;5017027;28;20034;-84
2021/09/05 00:59:02;;;;;;;12.95;7.70;;;16.10;99.90;;;;;;5003292;28;20034;-84
2021/09/05 01:01:28;;;;;;;10.32;6.78;;;16.10;99.90;;;;;;5003001;28;20037;-84
2021/09/05 01:03:53;;;;;;;13.13;7.03;;;16.00;99.90;;;;;;5022018;28;20034;-85
2021/09/05 01:06:20;;;;;;;10.85;6.55;;;16.00;99.90;;;;;;5022546;28;20037;-85
2021/09/05 01:08:47;;;;;;;11.55;6.90;;;16.00;99.90;;;;;;5022779;28;20103;-84
2021/09/05 01:11:13;;;;;;;13.95;7.13;;;15.90;99.90;;;;;;5022886;28;20038;-84
2021/09/05 01:13:40;;;;;;;12.32;6.68;;;16.00;99.90;;;;;;5020416;28;20022;-84
2021/09/05 01:16:06;;;;;;;12.52;6.45;;;15.90;99.90;;;;;;5023310;28;20022;-84
2021/09/05 01:18:32;;;;;;;14.43;7.25;;;15.90;99.90;;;;;;5004953;28;20032;-85
2021/09/05 01:20:57;;;;;;;15.07;6.97;;;15.90;99.90;;;;;;5022238;28;20036;-85
2021/09/05 01:23:23;;;;;;;11.48;7.00;;;15.90;99.90;;;;;;5021220;28;20026;-84
2021/09/05 01:25:48;;;;;;;12.20;6.57;;;15.80;99.90;;;;;;5020782;28;20464;-84
2021/09/05 01:28:14;;;;;;;10.32;6.43;;;15.80;99.90;;;;;;5020859;28;20034;-85
2021/09/05 01:30:40;;;;;;;11.25;6.30;;;15.70;99.90;;;;;;5018822;28;20030;-84
2021/09/05 01:33:05;;;;;;;10.15;6.60;;;15.80;99.90;;;;;;5022724;28;20097;-85
2021/09/05 01:35:35;;;;;;;10.55;5.90;;;15.70;99.90;;;;;;5020641;28;20033;-84
2021/09/05 01:38:00;;;;;;;11.95;6.03;;;15.70;99.90;;;;;;5020871;28;20517;-85
2021/09/05 01:40:26;;;;;;;11.80;6.90;;;15.70;99.90;;;;;;5022278;28;20018;-84
2021/09/05 01:42:52;;;;;;;13.57;6.60;;;15.70;99.90;;;;;;5022646;28;20092;-84
2021/09/05 01:45:17;;;;;;;12.65;6.90;;;15.70;99.90;;;;;;5020837;28;20499;-84
2021/09/05 01:47:43;;;;;;;11.13;6.28;;;15.60;99.90;;;;;;5018181;28;20117;-84
2021/09/05 01:50:09;;;;;;;10.75;6.15;;;15.60;99.90;;;;;;5018074;28;20034;-85
2021/09/05 01:52:35;;;;;;;9.73;5.85;;;15.60;99.90;;;;;;5019010;28;20057;-85
2021/09/05 01:55:00;;;;;;;13.00;6.85;;;15.60;99.90;;;;;;5021685;28;20041;-84
2021/09/05 01:57:26;;;;;;;11.77;5.90;;;15.60;99.90;;;;;;5014128;28;20026;-84
2021/09/05 01:59:51;;;;;;;10.82;6.63;;;15.60;99.90;;;;;;5007949;28;20018;-84
2021/09/05 02:02:17;;;;;;;10.43;6.30;;;15.50;99.90;;;;;;5024238;28;20041;-83
2021/09/05 02:04:42;;;;;;;12.40;6.53;;;15.50;99.90;;;;;;5022098;28;20035;-84
2021/09/05 02:07:08;;;;;;;12.85;6.47;;;15.50;99.90;;;;;;5021810;28;20104;-83
2021/09/05 02:09:33;;;;;;;12.40;7.13;;;15.50;99.90;;;;;;5019715;28;20036;-84
2021/09/05 02:11:59;;;;;;;13.23;7.80;;;15.40;99.90;;;;;;5022452;28;20044;-85
2021/09/05 02:14:24;;;;;;;11.18;6.47;;;15.40;99.90;;;;;;5019841;28;20030;-84
2021/09/05 02:16:50;;;;;;;11.52;7.07;;;15.30;99.90;;;;;;5019551;28;20037;-84
2021/09/05 02:19:15;;;;;;;12.38;7.10;;;15.30;99.90;;;;;;5008177;28;20068;-84
2021/09/05 02:21:41;;;;;;;12.45;6.93;;;15.30;99.90;;;;;;5014339;28;20030;-85
2021/09/05 02:24:07;;;;;;;13.02;7.90;;;15.30;99.90;;;;;;5004242;28;20029;-85
2021/09/05 02:26:32;;;;;;;11.65;6.70;;;15.30;99.90;;;;;;4999415;28;20033;-85
2021/09/05 02:28:58;;;;;;;11.40;6.97;;;15.30;99.90;;;;;;5023626;28;20034;-85
2021/09/05 02:31:23;;;;;;;12.77;7.57;;;15.20;99.90;;;;;;5023712;28;20029;-85
2021/09/05 02:33:49;;;;;;;12.63;7.03;;;15.20;99.90;;;;;;5024182;28;20110;-85
2021/09/05 02:36:14;;;;;;;13.65;7.28;;;15.20;99.90;;;;;;5025602;28;20338;-85
2021/09/05 02:38:40;;;;;;;12.57;6.85;;;15.20;99.90;;;;;;5026657;28;20034;-84
2021/09/05 02:41:05;;;;;;;10.75;6.72;;;15.20;99.90;;;;;;5013839;28;20014;-84
2021/09/05 02:43:31;;;;;;;12.35;7.00;;;15.20;99.90;;;;;;5006668;28;20029;-85
2021/09/05 02:45:57;;;;;;;13.23;7.65;;;15.20;99.90;;;;;;4986288;28;20033;-85
2021/09/05 02:48:23;;;;;;;10.93;7.18;;;15.20;99.90;;;;;;5003065;28;20026;-85
2021/09/05 02:50:49;;;;;;;12.77;7.57;;;15.10;99.90;;;;;;5000816;28;20034;-85
2021/09/05 02:53:14;;;;;;;12.75;7.60;;;15.10;99.90;;;;;;5022962;28;20041;-85
2021/09/05 02:55:40;;;;;;;13.95;7.55;;;15.10;99.90;;;;;;5022433;28;20034;-84
2021/09/05 02:58:06;;;;;;;12.15;7.38;;;15.00;99.90;;;;;;5003992;28;20049;-85
2021/09/05 03:00:31;;;;;;;12.98;7.80;;;15.10;99.90;;;;;;5006191;28;20308;-84
2021/09/05 03:02:57;;;;;;;12.70;7.28;;;15.00;99.90;;;;;;5002123;28;20037;-84
2021/09/05 03:05:22;;;;;;;12.30;7.32;;;15.00;99.90;;;;;;5000974;28;20053;-84
2021/09/05 03:07:48;;;;;;;12.32;7.38;;;15.00;99.90;;;;;;5002537;28;20088;-85
2021/09/05 03:10:14;;;;;;;12.25;7.15;;;15.00;99.90;;;;;;5002496;28;20031;-84
2021/09/05 03:12:39;;;;;;;14.18;8.18;;;15.00;99.90;;;;;;5002399;28;20642;-84
2021/09/05 03:15:06;;;;;;;13.90;7.55;;;14.90;99.90;;;;;;5002172;28;20027;-84
2021/09/05 03:17:31;;;;;;;12.00;7.53;;;14.90;99.90;;;;;;5013515;28;20489;-85
2021/09/05 03:19:57;;;;;;;13.00;7.45;;;14.90;99.90;;;;;;5020484;28;20033;-84
2021/09/05 03:22:22;;;;;;;12.25;7.47;;;14.90;99.90;;;;;;5021954;28;20038;-84
2021/09/05 03:24:48;;;;;;;15.13;7.53;;;14.90;99.90;;;;;;5020534;28;20049;-85
2021/09/05 03:27:13;;;;;;;12.18;6.90;;;14.80;99.90;;;;;;5021254;28;20030;-84
2021/09/05 03:29:39;;;;;;;13.18;7.82;;;14.80;99.90;;;;;;5020833;28;20062;-84
2021/09/05 03:32:05;;;;;;;12.13;7.50;;;14.80;99.90;;;;;;5019829;28;20037;-84
2021/09/05 03:34:30;;;;;;;11.40;7.07;;;14.80;99.90;;;;;;5016656;28;20049;-84
2021/09/05 03:36:56;;;;;;;14.23;6.85;;;14.80;99.90;;;;;;5000541;28;20018;-84
2021/09/05 03:39:21;;;;;;;10.65;6.65;;;14.80;99.90;;;;;;4998390;28;20026;-84
2021/09/05 03:41:47;;;;;;;10.02;6.55;;;14.80;99.90;;;;;;5000059;28;20032;-85
2021/09/05 03:44:13;;;;;;;14.13;7.20;;;14.80;99.90;;;;;;5000235;28;20033;-84
2021/09/05 03:46:38;;;;;;;11.98;7.00;;;14.80;99.90;;;;;;4993372;28;20093;-84
2021/09/05 03:49:04;;;;;;;13.27;6.32;;;14.80;99.90;;;;;;4991402;28;20023;-84
2021/09/05 03:51:29;;;;;;;12.65;6.60;;;14.70;99.90;;;;;;4992823;28;20505;-84
2021/09/05 03:53:55;;;;;;;11.30;6.68;;;14.70;99.90;;;;;;4993409;28;20022;-84
2021/09/05 03:56:20;;;;;;;13.73;7.25;;;14.70;99.90;;;;;;4993105;28;20038;-85
2021/09/05 03:58:46;;;;;;;15.38;7.05;;;14.70;99.90;;;;;;4994096;28;20038;-84
2021/09/05 04:01:11;;;;;;;13.20;7.07;;;14.70;99.90;;;;;;4996995;28;20054;-84
2021/09/05 04:03:37;;;;;;;11.25;6.97;;;14.70;99.90;;;;;;5012952;28;20021;-83
2021/09/05 04:06:03;;;;;;;15.27;8.10;;;14.60;99.90;;;;;;5015883;28;20034;-84
2021/09/05 04:08:49;;;;;;;15.65;8.68;;;14.60;99.90;;;;;;5015079;28;20406;-84
2021/09/05 04:11:15;;;;;;;15.63;8.18;;;14.60;99.90;;;;;;5014459;28;20126;-84
2021/09/05 04:13:41;;;;;;;14.85;8.27;;;14.60;99.90;;;;;;5017468;28;20062;-84
2021/09/05 04:16:06;;;;;;;13.65;8.13;;;14.50;99.90;;;;;;5017871;28;20026;-85
2021/09/05 04:18:32;;;;;;;13.82;8.60;;;14.50;99.90;;;;;;5017060;28;20029;-84
2021/09/05 04:20:58;;;;;;;13.90;8.27;;;14.40;99.90;;;;;;5017224;28;20030;-84
2021/09/05 04:23:24;;;;;;;13.05;7.72;;;14.30;99.90;;;;;;5015681;28;20173;-85
2021/09/05 04:25:49;;;;;;;11.88;7.05;;;14.20;99.90;;;;;;5016979;28;20111;-84
2021/09/05 04:28:15;;;;;;;13.38;7.13;;;14.30;99.90;;;;;;5014324;28;20034;-84
2021/09/05 04:30:40;;;;;;;19.05;8.18;;;14.30;99.90;;;;;;5015103;28;20044;-84
2021/09/05 04:33:06;;;;;;;14.80;8.15;;;14.30;99.90;;;;;;5014768;28;20068;-84
2021/09/05 04:35:32;;;;;;;13.88;7.70;;;14.30;99.90;;;;;;5014855;28;20077;-84
2021/09/05 04:37:57;;;;;;;13.60;8.30;;;14.20;99.90;;;;;;5013567;28;20030;-85
2021/09/05 04:40:23;;;;;;;13.50;7.97;;;14.20;99.90;;;;;;5014300;28;20070;-84
2021/09/05 04:42:49;;;;;;;13.73;7.90;;;14.20;99.90;;;;;;5011732;28;20393;-84
2021/09/05 04:45:14;;;;;;;12.63;7.88;;;14.20;99.90;;;;;;5012396;28;20058;-84
2021/09/05 04:47:40;;;;;;;14.30;7.72;;;14.20;99.90;;;;;;5012023;28;20081;-84
2021/09/05 04:50:06;;;;;;;12.82;7.55;;;14.20;99.90;;;;;;5012692;28;20072;-84
2021/09/05 04:52:32;;;;;;;16.38;8.23;;;14.20;99.90;;;;;;5013396;28;20056;-84
2021/09/05 04:54:58;;;;;;;12.93;7.50;;;14.20;99.90;;;;;;5013146;28;20116;-84
2021/09/05 04:57:23;;;;;;;16.00;8.07;;;14.20;99.90;;;;;;4998981;28;20404;-84
2021/09/05 04:59:49;;;;;;;12.70;7.97;;;14.20;99.90;;;;;;4992100;28;20028;-84
2021/09/05 05:02:14;;;;;;;11.70;6.82;;;14.20;99.90;;;;;;4993900;28;20168;-84
2021/09/05 05:04:40;;;;;;;11.93;6.75;;;14.10;99.90;;;;;;4992615;28;20026;-84
2021/09/05 05:07:06;;;;;;;12.25;7.05;;;14.20;99.90;;;;;;4993111;28;20073;-84
2021/09/05 05:09:31;;;;;;;14.35;7.60;;;14.30;99.90;;;;;;4991416;28;20054;-84
2021/09/05 05:11:57;;;;;;;11.25;6.97;;;14.20;99.90;;;;;;4993700;28;20088;-84
2021/09/05 05:14:23;;;;;;;14.00;7.07;;;14.20;99.90;;;;;;4991945;28;20031;-84
2021/09/05 05:16:48;;;;;;;17.98;7.10;;;14.30;99.90;;;;;;5010119;28;20034;-84
2021/09/05 05:19:14;;;;;;;13.25;7.03;;;14.20;99.90;;;;;;4995149;28;20030;-84
2021/09/05 05:21:41;;;;;;;13.80;7.30;;;14.30;99.90;;;;;;5000805;28;20475;-84
2021/09/05 05:24:07;;;;;;;11.75;7.28;;;14.30;99.90;;;;;;5019858;28;20528;-84
2021/09/05 05:26:32;;;;;;;12.82;6.72;;;14.40;99.90;;;;;;5016624;28;20118;-84
2021/09/05 05:28:58;;;;;;;11.75;7.47;;;14.40;99.90;;;;;;5014142;28;20113;-84
2021/09/05 05:31:24;;;;;;;12.07;6.50;;;14.40;99.90;;;;;;5016425;28;20125;-84
2021/09/05 05:33:50;;;;;;;11.32;6.85;;;14.50;99.90;;;;;;5015413;28;20037;-84
2021/09/05 05:36:16;;;;;;;10.77;6.38;;;14.50;99.90;;;;;;5014516;28;20105;-84
2021/09/05 05:38:42;;;;;;;12.57;6.88;;;14.50;99.90;;;;;;5015874;28;20026;-84
2021/09/05 05:41:08;;;;;;;11.27;6.22;;;14.60;99.90;;;;;;5016269;28;20048;-85
2021/09/05 05:43:35;;;;;;;11.32;6.97;;;14.60;99.90;;;;;;5004702;28;20028;-84
2021/09/05 05:46:00;;;;;;;12.50;7.50;;;14.70;99.90;;;;;;5015857;28;20445;-84
2021/09/05 05:48:26;;;;;;;11.35;6.60;;;14.80;99.90;;;;;;5015744;28;20029;-84
2021/09/05 05:50:53;;;;;;;12.05;7.10;;;14.80;99.90;;;;;;4998675;28;20033;-84
2021/09/05 05:53:22;;;;;;;11.20;5.97;;;14.80;99.90;;;;;;5015517;28;20033;-84
2021/09/05 05:55:47;;;;;;;9.95;5.88;;;14.80;99.90;;;;;;5014313;28;20057;-84
2021/09/05 05:58:13;;;;;;;12.50;7.22;;;14.80;99.90;;;;;;5013834;28;20109;-84
2021/09/05 06:00:39;;;;;;;12.07;6.18;;;14.90;99.90;;;;;;4998420;28;20041;-84
2021/09/05 06:03:08;;;;;;;10.90;6.63;;;14.90;99.90;;;;;;4995791;28;20065;-84
2021/09/05 06:05:35;;;;;;;10.98;6.22;;;15.00;99.90;;;;;;4995545;28;20134;-84
2021/09/05 06:08:04;;;;;;;10.82;6.35;;;15.10;99.90;;;;;;4994465;28;20041;-84
2021/09/05 06:10:31;;;;;;;11.48;6.00;;;15.20;99.90;;;;;;4997436;28;20030;-84
2021/09/05 06:12:57;;;;;;;9.50;5.70;;;15.30;99.90;;;;;;4994987;28;20117;-84
2021/09/05 06:15:22;;;;;;;10.07;6.38;;;15.50;99.90;;;;;;4994647;28;20030;-84
2021/09/05 06:17:48;;;;;;;12.32;6.72;;;15.50;99.90;;;;;;5002758;28;20437;-84
2021/09/05 06:20:14;;;;;;;14.88;6.82;;;15.40;99.90;;;;;;4996485;28;20032;-84
2021/09/05 06:22:39;;;;;;;12.60;6.63;;;15.50;99.90;;;;;;5013066;28;20029;-85
2021/09/05 06:25:05;;;;;;;10.30;6.63;;;15.40;99.90;;;;;;5013409;28;20109;-84
2021/09/05 06:27:31;;;;;;;10.48;5.97;;;15.50;99.90;;;;;;4996296;28;20525;-84
2021/09/05 06:29:56;;;;;;;11.10;6.22;;;15.50;99.90;;;;;;5013689;28;20034;-84
2021/09/05 06:32:22;;;;;;;10.30;6.10;;;15.60;99.90;;;;;;5004384;28;20030;-84
2021/09/05 06:34:48;;;;;;;11.30;6.47;;;15.70;99.90;;;;;;4993971;28;20105;-84
2021/09/05 06:37:13;;;;;;;11.68;6.47;;;15.80;99.90;;;;;;4994297;28;20054;-84
2021/09/05 06:39:39;;;;;;;9.77;6.63;;;15.90;99.90;;;;;;4993879;28;20023;-84
2021/09/05 06:42:05;;;;;;;11.65;6.82;;;16.10;99.90;;;;;;4993195;28;20030;-84
2021/09/05 06:44:30;;;;;;;11.23;7.22;;;16.20;99.90;;;;;;4992357;28;20100;-85
2021/09/05 06:46:56;;;;;;;11.63;6.43;;;16.20;99.90;;;;;;5020112;23;20043;-84
2021/09/05 06:49:22;;;;;;;9.70;6.40;;;16.40;99.90;;;;;;4982199;28;20460;-84
2021/09/05 06:51:47;;;;;;;10.48;6.40;;;16.50;99.90;;;;;;4984784;28;20667;-84
2021/09/05 06:54:13;;;;;;;9.65;5.93;;;16.60;99.90;;;;;;4992983;28;20044;-84
2021/09/05 06:56:39;;;;;;;11.38;5.85;;;16.70;99.90;;;;;;5004880;28;20046;-84
2021/09/05 06:59:05;;;;;;;11.20;6.50;;;16.80;99.90;;;;;;5004130;28;20024;-84
2021/09/05 07:01:32;;;;;;;10.02;5.65;;;16.90;99.90;;;;;;5019213;28;20069;-83
2021/09/05 07:03:58;;;;;;;8.23;5.43;;;17.00;99.90;;;;;;4983648;28;20097;-84
2021/09/05 07:06:23;;;;;;;10.25;5.95;;;17.10;99.90;;;;;;4985887;28;20027;-84
2021/09/05 07:08:49;;;;;;;11.57;6.10;;;16.80;99.90;;;;;;4984654;28;20039;-84
2021/09/05 07:11:15;;;;;;;9.98;6.30;;;16.80;99.90;;;;;;4984076;28;20022;-84
2021/09/05 07:13:41;;;;;;;12.45;6.25;;;16.50;99.90;;;;;;4984799;28;20075;-84
2021/09/05 07:16:07;;;;;;;12.30;6.78;;;16.50;99.90;;;;;;5001622;28;20433;-84
2021/09/05 07:18:33;;;;;;;11.15;6.35;;;16.60;99.90;;;;;;5006747;28;20073;-84
2021/09/05 07:20:59;;;;;;;11.23;6.45;;;16.70;99.90;;;;;;4995111;28;20443;-84
2021/09/05 07:23:24;;;;;;;9.68;6.20;;;16.90;99.90;;;;;;4988776;28;20046;-85
2021/09/05 07:25:50;;;;;;;10.65;6.15;;;17.10;99.90;;;;;;4995623;28;20054;-85
2021/09/05 07:28:16;;;;;;;9.30;5.82;;;17.30;99.90;;;;;;4983363;28;20506;-83
2021/09/05 07:30:41;;;;;;;10.65;6.95;;;17.50;99.90;;;;;;4985780;28;20062;-83
2021/09/05 07:33:07;;;;;;;11.07;6.90;;;17.60;99.90;;;;;;4996297;28;20034;-83
2021/09/05 07:35:33;;;;;;;9.15;6.25;;;17.50;99.90;;;;;;5002589;28;20030;-83
2021/09/05 07:37:58;;;;;;;11.10;7.13;;;17.60;99.90;;;;;;4988610;28;20519;-82
2021/09/05 07:40:24;;;;;;;10.85;7.18;;;17.60;99.90;;;;;;4986470;28;20019;-83
2021/09/05 07:42:49;;;;;;;9.77;5.85;;;17.70;99.90;;;;;;4999399;28;20046;-84
2021/09/05 07:45:15;;;;;;;8.63;5.63;;;17.80;99.90;;;;;;4997488;28;20034;-84
2021/09/05 07:47:41;;;;;;;12.98;6.35;;;18.00;99.90;;;;;;4983619;28;20082;-84
2021/09/05 07:50:08;;;;;;;9.52;5.82;;;18.20;99.90;;;;;;4984482;28;20077;-84
2021/09/05 07:52:33;;;;;;;9.02;5.10;;;18.40;99.90;;;;;;4984484;28;20027;-83
2021/09/05 07:54:59;;;;;;;8.82;5.30;;;18.50;99.90;;;;;;4982269;28;20038;-85
2021/09/05 07:57:25;;;;;;;8.30;5.22;;;18.60;99.90;;;;;;4984121;28;20031;-85
2021/09/05 07:59:51;;;;;;;11.48;5.90;;;18.70;99.90;;;;;;4993636;28;20022;-84
2021/09/05 08:02:16;;;;;;;10.23;5.88;;;18.90;99.90;;;;;;4995545;28;20133;-85
2021/09/05 08:04:42;;;;;;;8.65;5.22;;;18.90;99.90;;;;;;5003700;28;20028;-84
2021/09/05 08:07:07;;;;;;;10.48;6.28;;;19.00;99.90;;;;;;5000625;28;20054;-84
2021/09/05 08:09:33;;;;;;;9.02;5.40;;;19.20;99.90;;;;;;4986623;28;20029;-84
2021/09/05 08:11:58;;;;;;;8.43;5.32;;;19.30;99.90;;;;;;4988654;28;20022;-85
2021/09/05 08:14:24;;;;;;;9.60;5.68;;;19.40;99.90;;;;;;4986166;28;20035;-85
2021/09/05 08:16:50;;;;;;;9.55;5.50;;;19.40;99.90;;;;;;4991606;28;20499;-85
2021/09/05 08:19:16;;;;;;;8.85;5.18;;;19.20;99.90;;;;;;5002989;28;20039;-84
2021/09/05 08:21:41;;;;;;;11.88;7.63;;;19.30;99.90;;;;;;4986298;28;20038;-84
2021/09/05 08:24:07;;;;;;;9.50;5.55;;;19.20;99.90;;;;;;4987127;28;20031;-84
2021/09/05 08:26:33;;;;;;;11.90;6.40;;;19.20;99.90;;;;;;4984259;28;20027;-84
2021/09/05 08:28:59;;;;;;;9.10;5.07;;;19.20;99.90;;;;;;4987668;28;20034;-83
2021/09/05 08:31:24;;;;;;;9.43;5.00;;;19.40;99.90;;;;;;4986949;28;20080;-85
2021/09/05 08:33:50;;;;;;;11.15;5.28;;;19.60;99.90;;;;;;5002157;28;20109;-85
2021/09/05 08:36:16;;;;;;;9.00;5.18;;;19.70;99.90;;;;;;4990505;28;20097;-84
2021/09/05 08:38:42;;;;;;;10.32;5.85;;;19.80;99.90;;;;;;4982691;28;20018;-84
2021/09/05 08:41:08;;;;;;;7.95;5.00;;;20.10;99.90;;;;;;4984277;28;20037;-85
2021/09/05 08:43:35;;;;;;;8.85;5.15;;;20.20;99.90;;;;;;4984749;28;20023;-85
2021/09/05 08:46:01;;;;;;;8.35;5.28;;;20.40;99.90;;;;;;4994229;28;20065;-85
2021/09/05 08:48:26;;;;;;;7.45;4.85;;;20.50;99.90;;;;;;5000661;28;20046;-85
2021/09/05 08:50:53;;;;;;;8.18;4.90;;;20.70;99.90;;;;;;4987650;28;20030;-86
2021/09/05 08:53:19;;;;;;;7.57;4.47;;;20.70;99.90;;;;;;5001686;28;20053;-85
2021/09/05 08:55:46;;;;;;;6.93;4.22;;;20.90;99.90;;;;;;5015623;28;20022;-86
2021/09/05 08:58:12;;;;;;;7.95;4.80;;;21.10;99.90;;;;;;4987492;28;20022;-85
2021/09/05 09:00:38;;;;;;;9.40;5.15;;;21.30;99.90;;;;;;5004696;28;20029;-86
2021/09/05 09:03:04;;;;;;;8.90;4.68;;;21.30;99.90;;;;;;5007476;28;20042;-86
2021/09/05 09:05:41;;;;;;;7.57;4.50;;;21.50;99.90;;;;;;5002993;28;20027;-85
2021/09/05 09:08:12;;;;;;;6.93;4.20;;;21.70;99.90;;;;;;5002101;28;20065;-86
2021/09/05 09:10:59;;;;;;;7.97;4.60;;;21.80;99.90;;;;;;4982621;28;20133;-86
2021/09/05 09:13:37;;;;;;;8.40;4.70;;;22.00;99.90;;;;;;5000503;28;20090;-87
2021/09/05 09:16:12;;;;;;;8.50;4.60;;;22.00;99.90;;;;;;5006031;28;20521;-86
2021/09/05 09:18:40;;;;;;;7.68;4.68;;;22.20;99.90;;;;;;5006720;28;20072;-86
2021/09/05 09:21:11;;;;;;;7.68;4.20;;;22.30;99.90;;;;;;5009659;28;20027;-86
2021/09/05 09:23:39;;;;;;;6.30;4.25;;;22.40;99.90;;;;;;5005510;28;20066;-86
2021/09/05 09:26:05;;;;;;;8.52;4.03;;;22.50;99.90;;;;;;5005769;28;20058;-86
2021/09/05 09:28:39;;;;;;;7.47;3.70;;;22.50;99.90;;;;;;4988447;28;20088;-85
2021/09/05 09:31:12;;;;;;;6.90;3.90;;;22.70;99.90;;;;;;5008793;28;20023;-86
2021/09/05 09:33:38;;;;;;;6.47;3.80;;;22.70;99.90;;;;;;5025264;28;20088;-86
2021/09/05 09:36:04;;;;;;;6.15;3.90;;;22.70;99.90;;;;;;5024167;28;20029;-86
2021/09/05 09:38:31;;;;;;;7.97;4.55;;;22.90;99.90;;;;;;5016950;28;20033;-86
2021/09/05 09:41:11;;;;;;;6.68;3.85;;;22.90;99.90;;;;;;4982869;28;20072;-86
2021/09/05 09:43:53;;;;;;;7.30;4.20;;;23.20;99.90;;;;;;4995366;28;20018;-84
2021/09/05 09:46:23;;;;;;;7.88;3.40;;;23.30;99.90;;;;;;4985437;28;20049;-85
2021/09/05 09:48:52;;;;;;;7.78;4.15;;;23.30;99.90;;;;;;5007930;28;20049;-86
2021/09/05 09:51:19;;;;;;;5.72;3.65;;;23.40;99.90;;;;;;5007920;28;20022;-86
2021/09/05 09:53:45;;;;;;;7.57;3.78;;;23.30;99.20;;;;;;4992634;28;20030;-86
2021/09/05 09:56:16;;;;;;;8.20;3.45;;;23.30;99.00;;;;;;5010353;28;20026;-85
2021/09/05 09:58:43;;;;;;;6.47;3.58;;;23.20;98.90;;;;;;5008745;28;20025;-85
2021/09/05 10:01:08;;;;;;;6.00;3.40;;;23.20;98.90;;;;;;5007976;28;20018;-86
2021/09/05 10:03:35;;;;;;;7.10;3.53;;;23.20;99.30;;;;;;5008534;28;20033;-86
2021/09/05 10:06:01;;;;;;;5.55;3.20;;;23.20;99.60;;;;;;5022469;28;20090;-86
2021/09/05 10:08:30;;;;;;;6.70;3.70;;;23.20;99.60;;;;;;5027075;28;20030;-85
2021/09/05 10:10:58;;;;;;;5.35;3.20;;;23.30;99.40;;;;;;5027755;28;20033;-86
2021/09/05 10:13:31;;;;;;;5.90;3.38;;;23.50;99.00;;;;;;5026433;28;20037;-85
2021/09/05 10:15:57;;;;;;;5.22;3.13;;;23.80;98.30;;;;;;5028502;28;20022;-85
2021/09/05 10:18:24;;;;;;;8.25;3.35;;;24.30;97.90;;;;;;5026352;28;20030;-85
2021/09/05 10:20:49;;;;;;;6.72;3.70;;;24.70;98.00;;;;;;5028563;28;20026;-86
2021/09/05 10:23:26;;;;;;;5.85;3.78;;;24.90;97.10;;;;;;4992633;28;20034;-85
2021/09/05 10:25:53;;;;;;;6.68;3.85;;;25.00;96.50;;;;;;5005459;28;20167;-86
2021/09/05 10:28:36;;;;;;;6.53;3.10;;;25.20;95.80;;;;;;4988540;28;20010;-86
2021/09/05 10:31:02;;;;;;;12.05;3.50;;;25.50;96.00;;;;;;5005761;28;20033;-85
2021/09/05 10:33:34;;;;;;;6.18;3.45;;;25.50;95.40;;;;;;5022805;28;20065;-84
2021/09/05 10:36:14;;;;;;;7.13;3.30;;;25.70;94.90;;;;;;5026789;28;20040;-85
2021/09/05 10:38:43;;;;;;;6.22;2.90;;;25.70;94.10;;;;;;5025867;28;20022;-84
2021/09/05 10:41:20;;;;;;;5.28;3.28;;;25.90;92.30;;;;;;5023726;28;20018;-84
2021/09/05 10:44:02;;;;;;;5.60;3.17;;;26.00;93.20;;;;;;4988105;28;20026;-85
2021/09/05 10:46:34;;;;;;;5.28;3.30;;;25.90;91.60;;;;;;4987405;28;20097;-84
2021/09/05 10:49:02;;;;;;;5.95;3.33;;;25.90;92.10;;;;;;5012883;28;20086;-84
2021/09/05 10:51:39;;;;;;;6.10;2.78;;;26.20;91.90;;;;;;5015418;28;20106;-84
2021/09/05 10:54:22;;;;;;;5.93;2.95;;;26.40;92.10;;;;;;5006413;28;20053;-85
2021/09/05 10:56:48;;;;;;;5.38;2.97;;;26.40;90.70;;;;;;5006559;28;20125;-85
2021/09/05 10:59:27;;;;;;;5.38;3.60;;;26.40;90.90;;;;;;4986752;28;20027;-85
2021/09/05 11:01:52;;;;;;;6.53;2.80;;;26.20;90.70;;;;;;5004849;28;20014;-85
2021/09/05 11:04:24;;;;;;;5.72;3.17;;;26.30;91.40;;;;;;5004145;28;20509;-85
2021/09/05 11:06:52;;;;;;;;;;;26.10;91.20;;;;;;5004962;28;20037;-85
2021/09/05 11:09:18;;;;;;;5.82;2.78;;;26.20;91.00;;;;;;5018409;28;19909;-85
2021/09/05 11:12:23;;;;;;;5.18;2.72;;;26.40;90.00;;;;;;5024392;28;20045;-85
2021/09/05 11:14:50;;;;;;;5.88;2.90;;;26.50;87.70;;;;;;5023065;28;20494;-85
2021/09/05 11:17:17;;;;;;;5.60;2.63;;;26.20;85.80;;;;;;5006486;28;20034;-85
2021/09/05 11:19:53;;;;;;;8.88;2.50;;;26.20;86.80;;;;;;5023242;28;20014;-85
2021/09/05 11:22:29;;;;;;;5.60;2.50;;;26.20;84.10;;;;;;5023893;28;20013;-85
2021/09/05 11:25:24;;;;;;;3.83;2.10;;;26.50;83.60;;;;;;5002590;28;20026;-85
2021/09/05 11:28:04;;;;;;;3.45;2.03;;;26.70;81.30;;;;;;5004361;28;20019;-85
2021/09/05 11:30:43;;;;;;;4.88;2.60;;;26.90;81.40;;;;;;5005310;28;20037;-84
2021/09/05 11:33:12;;;;;;;5.30;2.40;;;27.10;81.60;;;;;;5013527;28;20023;-86
2021/09/05 11:35:46;;;;;;;4.38;2.33;;;26.80;80.50;;;;;;4987775;28;20102;-85
2021/09/05 11:38:13;;;;;;;4.60;2.70;;;26.70;81.50;;;;;;5003422;28;20113;-86
2021/09/05 11:40:41;;;;;;;4.78;2.38;;;27.00;80.60;;;;;;5007226;28;20019;-84
2021/09/05 11:43:07;;;;;;;4.65;2.42;;;26.90;77.90;;;;;;5005773;28;20023;-85
2021/09/05 11:45:38;;;;;;;5.30;2.40;;;26.70;78.90;;;;;;5006309;28;20042;-85
2021/09/05 11:48:05;;;;;;;5.10;2.88;;;26.70;81.40;;;;;;5005612;28;20026;-85
2021/09/05 11:50:36;;;;;;;5.57;2.60;;;26.90;82.50;;;;;;5005390;28;20087;-85
2021/09/05 11:53:03;;;;;;;;;;;27.10;81.20;;;;;;5017150;28;20022;-85
2021/09/05 11:55:28;;;;;;;4.65;2.65;;;27.30;81.30;;;;;;5024084;28;20012;-86
2021/09/05 11:58:04;;;;;;;4.93;2.55;;;27.40;82.00;;;;;;5023869;28;20021;-85
2021/09/05 12:00:35;;;;;;;6.22;2.80;;;27.60;80.10;;;;;;5015469;28;20090;-85
2021/09/05 12:03:04;;;;;;;6.15;2.55;;;27.70;79.20;;;;;;4986622;28;20102;-85
2021/09/05 12:05:29;;;;;;;4.38;2.40;;;28.00;77.70;;;;;;5004287;28;20053;-85
2021/09/05 12:07:56;;;;;;;5.60;2.75;;;28.20;76.80;;;;;;4985281;28;20030;-85
2021/09/05 12:10:26;;;;;;;5.35;2.72;;;28.10;77.00;;;;;;5003824;28;20034;-85
2021/09/05 12:13:00;;;;;;;4.78;2.85;;;27.40;75.20;;;;;;5004684;28;20026;-85
2021/09/05 12:15:35;;;;;;;5.63;2.67;;;27.10;76.90;;;;;;5005272;28;20041;-86
2021/09/05 12:18:01;;;;;;;4.45;2.80;;;27.40;78.00;;;;;;5009795;28;20102;-86
2021/09/05 12:20:43;;;;;;;5.20;2.78;;;27.60;77.40;;;;;;5004948;28;20058;-86
2021/09/05 12:23:29;;;;;;;4.88;2.58;;;27.80;75.60;;;;;;4987506;28;20026;-85
2021/09/05 12:25:58;;;;;;;4.32;2.50;;;28.00;75.60;;;;;;5005383;28;20105;-86
2021/09/05 12:28:28;;;;;;;5.47;3.28;;;28.00;74.30;;;;;;5004707;28;20031;-86
2021/09/05 12:30:57;;;;;;;5.65;2.88;;;28.20;76.60;;;;;;5008771;28;20511;-87
2021/09/05 12:33:26;;;;;;;4.70;2.70;;;28.50;75.10;;;;;;5020296;28;20056;-86
2021/09/05 12:35:54;;;;;;;4.90;2.47;;;28.30;73.40;;;;;;5018986;28;20026;-86
2021/09/05 12:38:30;;;;;;;5.43;2.90;;;27.90;75.70;;;;;;5006996;28;20041;-86
2021/09/05 12:41:13;;;;;;;4.28;2.50;;;27.60;73.00;;;;;;5013422;28;20023;-86